sensor_id;sensor_type;location;lat;lon;timestamp;temperature;humidity
61398;DHT22;47267;48.130;-2.040;2022-11-25T00:01:12;19.50;57.10
61398;DHT22;47267;48.130;-2.040;2022-11-25T00:03:39;19.50;57.10
61398;DHT22;47267;48.130;-2.040;2022-11-25T00:06:17;19.50;57.10
61398;DHT22;47267;48.130;-2.040;2022-11-25T00:08:45;19.40;57.10
61398;DHT22;47267;48.130;-2.040;2022-11-25T00:11:12;19.40;57.10
61398;DHT22;47267;48.130;-2.040;2022-11-25T00:13:38;19.40;57.10
61398;DHT22;47267;48.130;-2.040;2022-11-25T00:16:09;19.40;57.10
61398;DHT22;47267;48.130;-2.040;2022-11-25T00:18:35;19.30;57.00
61398;DHT22;47267;48.130;-2.040;2022-11-25T00:21:06;19.30;57.00
61398;DHT22;47267;48.130;-2.040;2022-11-25T00:23:32;19.30;57.00
61398;DHT22;47267;48.130;-2.040;2022-11-25T00:26:04;19.30;57.00
61398;DHT22;47267;48.130;-2.040;2022-11-25T00:28:29;19.30;57.00
61398;DHT22;47267;48.130;-2.040;2022-11-25T00:30:59;19.30;57.00
61398;DHT22;47267;48.130;-2.040;2022-11-25T00:33:27;19.30;57.00
61398;DHT22;47267;48.130;-2.040;2022-11-25T00:35:53;19.20;57.00
61398;DHT22;47267;48.130;-2.040;2022-11-25T00:38:19;19.20;57.00
61398;DHT22;47267;48.130;-2.040;2022-11-25T00:40:44;19.20;56.90
61398;DHT22;47267;48.130;-2.040;2022-11-25T00:43:30;19.20;56.90
61398;DHT22;47267;48.130;-2.040;2022-11-25T00:46:14;19.20;57.00
61398;DHT22;47267;48.130;-2.040;2022-11-25T00:48:40;19.10;56.90
61398;DHT22;47267;48.130;-2.040;2022-11-25T00:51:05;19.10;56.90
61398;DHT22;47267;48.130;-2.040;2022-11-25T00:53:31;19.10;56.90
61398;DHT22;47267;48.130;-2.040;2022-11-25T00:56:01;19.10;56.90
61398;DHT22;47267;48.130;-2.040;2022-11-25T00:58:39;19.10;56.90
61398;DHT22;47267;48.130;-2.040;2022-11-25T01:01:05;19.10;56.90
61398;DHT22;47267;48.130;-2.040;2022-11-25T01:03:30;19.10;56.90
61398;DHT22;47267;48.130;-2.040;2022-11-25T01:06:09;19.00;56.80
61398;DHT22;47267;48.130;-2.040;2022-11-25T01:08:37;19.00;56.80
61398;DHT22;47267;48.130;-2.040;2022-11-25T01:11:06;19.00;56.80
61398;DHT22;47267;48.130;-2.040;2022-11-25T01:13:32;19.00;56.80
61398;DHT22;47267;48.130;-2.040;2022-11-25T01:16:05;19.00;56.80
61398;DHT22;47267;48.130;-2.040;2022-11-25T01:18:31;19.00;56.90
61398;DHT22;47267;48.130;-2.040;2022-11-25T01:21:24;18.90;56.80
61398;DHT22;47267;48.130;-2.040;2022-11-25T01:23:51;18.90;56.80
61398;DHT22;47267;48.130;-2.040;2022-11-25T01:26:19;18.90;56.80
61398;DHT22;47267;48.130;-2.040;2022-11-25T01:28:45;18.90;56.80
61398;DHT22;47267;48.130;-2.040;2022-11-25T01:31:14;18.90;56.90
61398;DHT22;47267;48.130;-2.040;2022-11-25T01:33:41;18.90;56.80
61398;DHT22;47267;48.130;-2.040;2022-11-25T01:36:10;18.90;56.80
61398;DHT22;47267;48.130;-2.040;2022-11-25T01:38:36;18.90;56.80
61398;DHT22;47267;48.130;-2.040;2022-11-25T01:41:03;18.80;56.80
61398;DHT22;47267;48.130;-2.040;2022-11-25T01:43:29;18.80;56.80
61398;DHT22;47267;48.130;-2.040;2022-11-25T01:48:55;18.80;56.80
61398;DHT22;47267;48.130;-2.040;2022-11-25T01:51:27;18.80;56.80
61398;DHT22;47267;48.130;-2.040;2022-11-25T01:53:56;18.80;56.80
61398;DHT22;47267;48.130;-2.040;2022-11-25T01:56:25;18.70;56.80
61398;DHT22;47267;48.130;-2.040;2022-11-25T01:58:52;18.70;56.80
61398;DHT22;47267;48.130;-2.040;2022-11-25T02:01:18;18.70;56.80
61398;DHT22;47267;48.130;-2.040;2022-11-25T02:03:48;18.70;56.80
61398;DHT22;47267;48.130;-2.040;2022-11-25T02:06:27;18.70;56.80
61398;DHT22;47267;48.130;-2.040;2022-11-25T02:09:03;18.70;56.80
61398;DHT22;47267;48.130;-2.040;2022-11-25T02:11:31;18.70;56.80
61398;DHT22;47267;48.130;-2.040;2022-11-25T02:13:58;18.70;56.80
61398;DHT22;47267;48.130;-2.040;2022-11-25T02:16:24;18.60;56.80
61398;DHT22;47267;48.130;-2.040;2022-11-25T02:18:50;18.60;56.80
61398;DHT22;47267;48.130;-2.040;2022-11-25T02:21:23;18.60;56.80
61398;DHT22;47267;48.130;-2.040;2022-11-25T02:24:03;18.60;56.80
61398;DHT22;47267;48.130;-2.040;2022-11-25T02:26:31;18.60;56.80
61398;DHT22;47267;48.130;-2.040;2022-11-25T02:28:57;18.60;56.80
61398;DHT22;47267;48.130;-2.040;2022-11-25T02:31:23;18.50;56.80
61398;DHT22;47267;48.130;-2.040;2022-11-25T02:33:49;18.50;56.80
61398;DHT22;47267;48.130;-2.040;2022-11-25T02:36:18;18.50;56.80
61398;DHT22;47267;48.130;-2.040;2022-11-25T02:38:57;18.50;56.80
61398;DHT22;47267;48.130;-2.040;2022-11-25T02:41:31;18.50;56.80
61398;DHT22;47267;48.130;-2.040;2022-11-25T02:43:58;18.50;56.80
61398;DHT22;47267;48.130;-2.040;2022-11-25T02:46:26;18.50;56.80
61398;DHT22;47267;48.130;-2.040;2022-11-25T02:48:54;18.50;56.80
61398;DHT22;47267;48.130;-2.040;2022-11-25T02:51:22;18.50;56.80
61398;DHT22;47267;48.130;-2.040;2022-11-25T02:53:49;18.40;56.80
61398;DHT22;47267;48.130;-2.040;2022-11-25T02:56:19;18.40;56.80
61398;DHT22;47267;48.130;-2.040;2022-11-25T02:58:45;18.40;56.80
61398;DHT22;47267;48.130;-2.040;2022-11-25T03:01:11;18.40;56.80
61398;DHT22;47267;48.130;-2.040;2022-11-25T03:03:36;18.40;56.80
61398;DHT22;47267;48.130;-2.040;2022-11-25T03:06:02;18.40;56.80
61398;DHT22;47267;48.130;-2.040;2022-11-25T03:08:28;18.40;56.90
61398;DHT22;47267;48.130;-2.040;2022-11-25T03:10:54;18.40;56.80
61398;DHT22;47267;48.130;-2.040;2022-11-25T03:13:20;18.40;56.80
61398;DHT22;47267;48.130;-2.040;2022-11-25T03:15:45;18.40;56.80
61398;DHT22;47267;48.130;-2.040;2022-11-25T03:18:11;18.30;56.80
61398;DHT22;47267;48.130;-2.040;2022-11-25T03:20:37;18.30;56.80
61398;DHT22;47267;48.130;-2.040;2022-11-25T03:23:04;18.30;56.80
61398;DHT22;47267;48.130;-2.040;2022-11-25T03:25:29;18.30;56.80
61398;DHT22;47267;48.130;-2.040;2022-11-25T03:27:55;18.30;56.80
61398;DHT22;47267;48.130;-2.040;2022-11-25T03:30:24;18.30;56.80
61398;DHT22;47267;48.130;-2.040;2022-11-25T03:32:51;18.30;56.80
61398;DHT22;47267;48.130;-2.040;2022-11-25T03:35:17;18.20;56.80
61398;DHT22;47267;48.130;-2.040;2022-11-25T03:37:43;18.20;56.80
61398;DHT22;47267;48.130;-2.040;2022-11-25T03:40:10;18.20;56.80
61398;DHT22;47267;48.130;-2.040;2022-11-25T03:42:37;18.20;56.80
61398;DHT22;47267;48.130;-2.040;2022-11-25T03:45:03;18.20;56.80
61398;DHT22;47267;48.130;-2.040;2022-11-25T03:47:29;18.20;56.80
61398;DHT22;47267;48.130;-2.040;2022-11-25T03:49:54;18.20;56.90
61398;DHT22;47267;48.130;-2.040;2022-11-25T03:52:20;18.20;56.80
61398;DHT22;47267;48.130;-2.040;2022-11-25T03:54:46;18.20;56.90
61398;DHT22;47267;48.130;-2.040;2022-11-25T03:57:12;18.20;56.80
61398;DHT22;47267;48.130;-2.040;2022-11-25T03:59:38;18.20;56.90
61398;DHT22;47267;48.130;-2.040;2022-11-25T04:02:03;18.10;56.80
61398;DHT22;47267;48.130;-2.040;2022-11-25T04:04:29;18.10;56.80
61398;DHT22;47267;48.130;-2.040;2022-11-25T04:06:55;18.10;56.80
61398;DHT22;47267;48.130;-2.040;2022-11-25T04:09:20;18.10;56.80
61398;DHT22;47267;48.130;-2.040;2022-11-25T04:11:46;18.10;56.80
61398;DHT22;47267;48.130;-2.040;2022-11-25T04:14:31;18.10;56.80
61398;DHT22;47267;48.130;-2.040;2022-11-25T04:16:57;18.10;56.80
61398;DHT22;47267;48.130;-2.040;2022-11-25T04:19:22;18.10;56.90
61398;DHT22;47267;48.130;-2.040;2022-11-25T04:21:48;18.10;56.90
61398;DHT22;47267;48.130;-2.040;2022-11-25T04:24:14;18.10;56.80
61398;DHT22;47267;48.130;-2.040;2022-11-25T04:26:40;18.10;56.90
61398;DHT22;47267;48.130;-2.040;2022-11-25T04:29:06;18.00;56.80
61398;DHT22;47267;48.130;-2.040;2022-11-25T04:31:31;18.00;56.80
61398;DHT22;47267;48.130;-2.040;2022-11-25T04:33:57;18.00;56.80
61398;DHT22;47267;48.130;-2.040;2022-11-25T04:36:24;18.00;57.40
61398;DHT22;47267;48.130;-2.040;2022-11-25T04:38:50;18.00;56.80
61398;DHT22;47267;48.130;-2.040;2022-11-25T04:41:15;18.00;56.80
61398;DHT22;47267;48.130;-2.040;2022-11-25T04:43:41;18.00;56.80
61398;DHT22;47267;48.130;-2.040;2022-11-25T04:46:08;18.00;56.80
61398;DHT22;47267;48.130;-2.040;2022-11-25T04:48:34;18.00;56.90
61398;DHT22;47267;48.130;-2.040;2022-11-25T04:50:59;17.90;56.80
61398;DHT22;47267;48.130;-2.040;2022-11-25T04:53:25;18.00;56.90
61398;DHT22;47267;48.130;-2.040;2022-11-25T04:55:51;18.00;56.90
61398;DHT22;47267;48.130;-2.040;2022-11-25T04:58:16;17.90;56.80
61398;DHT22;47267;48.130;-2.040;2022-11-25T05:01:02;17.90;56.80
61398;DHT22;47267;48.130;-2.040;2022-11-25T05:03:28;17.90;56.80
61398;DHT22;47267;48.130;-2.040;2022-11-25T05:05:53;17.90;56.80
61398;DHT22;47267;48.130;-2.040;2022-11-25T05:08:19;17.90;56.80
61398;DHT22;47267;48.130;-2.040;2022-11-25T05:10:44;17.90;56.80
61398;DHT22;47267;48.130;-2.040;2022-11-25T05:13:10;17.90;56.80
61398;DHT22;47267;48.130;-2.040;2022-11-25T05:15:36;17.80;56.80
61398;DHT22;47267;48.130;-2.040;2022-11-25T05:18:02;17.90;56.80
61398;DHT22;47267;48.130;-2.040;2022-11-25T05:20:27;17.90;56.80
61398;DHT22;47267;48.130;-2.040;2022-11-25T05:22:53;17.80;56.80
61398;DHT22;47267;48.130;-2.040;2022-11-25T05:25:18;17.80;56.80
61398;DHT22;47267;48.130;-2.040;2022-11-25T05:27:45;17.80;56.80
61398;DHT22;47267;48.130;-2.040;2022-11-25T05:30:11;17.80;56.80
61398;DHT22;47267;48.130;-2.040;2022-11-25T05:32:37;17.80;56.80
61398;DHT22;47267;48.130;-2.040;2022-11-25T05:35:05;17.80;56.80
61398;DHT22;47267;48.130;-2.040;2022-11-25T05:37:30;17.70;56.70
61398;DHT22;47267;48.130;-2.040;2022-11-25T05:39:56;17.70;56.80
61398;DHT22;47267;48.130;-2.040;2022-11-25T05:42:22;17.70;56.80
61398;DHT22;47267;48.130;-2.040;2022-11-25T05:44:47;17.70;56.80
61398;DHT22;47267;48.130;-2.040;2022-11-25T05:47:13;17.70;56.80
61398;DHT22;47267;48.130;-2.040;2022-11-25T05:49:39;17.70;56.80
61398;DHT22;47267;48.130;-2.040;2022-11-25T05:52:04;17.70;56.80
61398;DHT22;47267;48.130;-2.040;2022-11-25T05:54:30;17.70;56.80
61398;DHT22;47267;48.130;-2.040;2022-11-25T05:56:56;17.70;56.80
61398;DHT22;47267;48.130;-2.040;2022-11-25T05:59:21;17.70;56.80
61398;DHT22;47267;48.130;-2.040;2022-11-25T06:01:47;17.70;56.80
61398;DHT22;47267;48.130;-2.040;2022-11-25T06:04:13;17.70;56.80
61398;DHT22;47267;48.130;-2.040;2022-11-25T06:06:39;17.60;56.80
61398;DHT22;47267;48.130;-2.040;2022-11-25T06:09:04;17.60;56.80
61398;DHT22;47267;48.130;-2.040;2022-11-25T06:11:30;17.70;56.90
61398;DHT22;47267;48.130;-2.040;2022-11-25T06:13:56;17.60;56.80
61398;DHT22;47267;48.130;-2.040;2022-11-25T06:16:23;17.60;57.00
61398;DHT22;47267;48.130;-2.040;2022-11-25T06:18:49;17.60;57.00
61398;DHT22;47267;48.130;-2.040;2022-11-25T06:21:15;17.60;57.10
61398;DHT22;47267;48.130;-2.040;2022-11-25T06:23:41;17.60;57.30
61398;DHT22;47267;48.130;-2.040;2022-11-25T06:26:15;17.60;57.40
61398;DHT22;47267;48.130;-2.040;2022-11-25T06:28:41;17.60;57.50
61398;DHT22;47267;48.130;-2.040;2022-11-25T06:31:13;17.60;57.60
61398;DHT22;47267;48.130;-2.040;2022-11-25T06:33:39;17.60;57.70
61398;DHT22;47267;48.130;-2.040;2022-11-25T17:24:18;19.30;58.10
61398;DHT22;47267;48.130;-2.040;2022-11-25T17:26:50;19.20;58.40
61398;DHT22;47267;48.130;-2.040;2022-11-25T17:29:20;19.20;58.40
61398;DHT22;47267;48.130;-2.040;2022-11-25T17:31:46;19.30;58.40
61398;DHT22;47267;48.130;-2.040;2022-11-25T17:34:15;19.30;58.40
61398;DHT22;47267;48.130;-2.040;2022-11-25T17:36:41;19.30;58.40
61398;DHT22;47267;48.130;-2.040;2022-11-25T17:39:12;19.30;58.40
61398;DHT22;47267;48.130;-2.040;2022-11-25T17:41:42;19.30;58.40
61398;DHT22;47267;48.130;-2.040;2022-11-25T17:44:25;19.30;58.40
61398;DHT22;47267;48.130;-2.040;2022-11-25T17:46:52;19.30;58.40
61398;DHT22;47267;48.130;-2.040;2022-11-25T17:49:19;19.30;58.40
61398;DHT22;47267;48.130;-2.040;2022-11-25T17:51:45;19.30;58.40
61398;DHT22;47267;48.130;-2.040;2022-11-25T17:54:11;19.40;58.40
61398;DHT22;47267;48.130;-2.040;2022-11-25T17:56:39;19.30;58.40
61398;DHT22;47267;48.130;-2.040;2022-11-25T17:59:10;19.40;58.40
61398;DHT22;47267;48.130;-2.040;2022-11-25T18:01:37;19.40;58.40
61398;DHT22;47267;48.130;-2.040;2022-11-25T18:04:15;19.40;58.40
61398;DHT22;47267;48.130;-2.040;2022-11-25T18:06:41;19.40;58.40
61398;DHT22;47267;48.130;-2.040;2022-11-25T18:09:07;19.40;58.40
61398;DHT22;47267;48.130;-2.040;2022-11-25T18:11:33;19.40;58.40
61398;DHT22;47267;48.130;-2.040;2022-11-25T18:13:59;19.40;58.40
61398;DHT22;47267;48.130;-2.040;2022-11-25T18:16:25;19.40;58.40
61398;DHT22;47267;48.130;-2.040;2022-11-25T18:18:53;19.40;58.40
61398;DHT22;47267;48.130;-2.040;2022-11-25T18:21:19;19.40;58.30
61398;DHT22;47267;48.130;-2.040;2022-11-25T18:23:45;19.40;58.30
61398;DHT22;47267;48.130;-2.040;2022-11-25T18:26:11;19.40;58.30
61398;DHT22;47267;48.130;-2.040;2022-11-25T18:28:37;19.40;58.30
61398;DHT22;47267;48.130;-2.040;2022-11-25T18:31:04;19.40;58.30
61398;DHT22;47267;48.130;-2.040;2022-11-25T18:33:30;19.40;58.30
61398;DHT22;47267;48.130;-2.040;2022-11-25T18:35:56;19.40;58.30
61398;DHT22;47267;48.130;-2.040;2022-11-25T18:38:21;19.40;58.30
61398;DHT22;47267;48.130;-2.040;2022-11-25T18:40:48;19.40;58.30
61398;DHT22;47267;48.130;-2.040;2022-11-25T18:43:17;19.40;58.20
61398;DHT22;47267;48.130;-2.040;2022-11-25T18:45:44;19.40;58.20
61398;DHT22;47267;48.130;-2.040;2022-11-25T18:50:38;19.40;58.20
61398;DHT22;47267;48.130;-2.040;2022-11-25T18:53:04;19.40;58.20
61398;DHT22;47267;48.130;-2.040;2022-11-25T18:55:29;19.40;58.20
61398;DHT22;47267;48.130;-2.040;2022-11-25T18:57:55;19.40;58.20
61398;DHT22;47267;48.130;-2.040;2022-11-25T19:00:23;19.40;58.10
61398;DHT22;47267;48.130;-2.040;2022-11-25T19:02:49;19.40;58.10
61398;DHT22;47267;48.130;-2.040;2022-11-25T19:05:19;19.40;58.10
61398;DHT22;47267;48.130;-2.040;2022-11-25T19:07:46;19.40;58.10
61398;DHT22;47267;48.130;-2.040;2022-11-25T19:10:13;19.30;58.00
61398;DHT22;47267;48.130;-2.040;2022-11-25T19:12:40;19.30;58.00
61398;DHT22;47267;48.130;-2.040;2022-11-25T19:15:08;19.30;58.00
61398;DHT22;47267;48.130;-2.040;2022-11-25T19:17:34;19.30;57.90
61398;DHT22;47267;48.130;-2.040;2022-11-25T19:20:00;19.30;57.90
61398;DHT22;47267;48.130;-2.040;2022-11-25T19:22:25;19.30;57.90
61398;DHT22;47267;48.130;-2.040;2022-11-25T19:24:51;19.30;57.90
61398;DHT22;47267;48.130;-2.040;2022-11-25T19:27:20;19.30;57.90
61398;DHT22;47267;48.130;-2.040;2022-11-25T19:29:48;19.30;57.90
61398;DHT22;47267;48.130;-2.040;2022-11-25T19:32:33;19.30;57.90
61398;DHT22;47267;48.130;-2.040;2022-11-25T19:35:04;19.30;57.80
61398;DHT22;47267;48.130;-2.040;2022-11-25T19:37:30;19.30;57.80
61398;DHT22;47267;48.130;-2.040;2022-11-25T23:17:16;19.20;57.70
61398;DHT22;47267;48.130;-2.040;2022-11-25T23:19:43;18.30;56.40
61398;DHT22;47267;48.130;-2.040;2022-11-25T23:22:10;18.30;56.40
61398;DHT22;47267;48.130;-2.040;2022-11-25T23:24:38;18.20;56.30
61398;DHT22;47267;48.130;-2.040;2022-11-25T23:27:05;18.20;56.30
61398;DHT22;47267;48.130;-2.040;2022-11-25T23:29:31;18.20;56.30
61398;DHT22;47267;48.130;-2.040;2022-11-25T23:31:58;18.20;56.30
61398;DHT22;47267;48.130;-2.040;2022-11-25T23:34:26;18.20;56.30
61398;DHT22;47267;48.130;-2.040;2022-11-25T23:36:51;18.20;56.30
61398;DHT22;47267;48.130;-2.040;2022-11-25T23:39:22;18.20;56.30
61398;DHT22;47267;48.130;-2.040;2022-11-25T23:41:49;18.20;56.30
61398;DHT22;47267;48.130;-2.040;2022-11-25T23:44:24;18.10;56.20
61398;DHT22;47267;48.130;-2.040;2022-11-25T23:46:56;18.10;56.20
61398;DHT22;47267;48.130;-2.040;2022-11-25T23:49:27;18.10;56.20
61398;DHT22;47267;48.130;-2.040;2022-11-25T23:51:56;18.10;56.30
61398;DHT22;47267;48.130;-2.040;2022-11-25T23:54:26;18.10;56.20
61398;DHT22;47267;48.130;-2.040;2022-11-25T23:56:53;18.10;56.20
61398;DHT22;47267;48.130;-2.040;2022-11-25T23:59:19;18.10;56.20
